sensor_id;sensor_type;location;lat;lon;timestamp;P1;durP1;ratioP1;P2;durP2;ratioP2
35518;SDS011;21627;48.216;16.482;2023-08-01T00:00:44;4.20;;;2.70;;
35518;SDS011;21627;48.216;16.482;2023-08-01T00:03:11;6.85;;;3.45;;
35518;SDS011;21627;48.216;16.482;2023-08-01T00:05:40;5.03;;;3.03;;
35518;SDS011;21627;48.216;16.482;2023-08-01T00:08:11;5.45;;;3.35;;
35518;SDS011;21627;48.216;16.482;2023-08-01T00:10:39;3.83;;;2.70;;
35518;SDS011;21627;48.216;16.482;2023-08-01T00:13:07;5.65;;;2.95;;
35518;SDS011;21627;48.216;16.482;2023-08-01T00:15:35;4.43;;;3.00;;
35518;SDS011;21627;48.216;16.482;2023-08-01T00:18:02;8.00;;;3.53;;
35518;SDS011;21627;48.216;16.482;2023-08-01T00:20:31;11.10;;;3.55;;
35518;SDS011;21627;48.216;16.482;2023-08-01T00:23:00;4.82;;;3.00;;
35518;SDS011;21627;48.216;16.482;2023-08-01T00:25:28;4.57;;;2.97;;
35518;SDS011;21627;48.216;16.482;2023-08-01T00:27:57;6.95;;;2.90;;
35518;SDS011;21627;48.216;16.482;2023-08-01T00:30:28;4.20;;;2.83;;
35518;SDS011;21627;48.216;16.482;2023-08-01T00:32:57;14.23;;;3.05;;
35518;SDS011;21627;48.216;16.482;2023-08-01T00:35:24;7.80;;;3.35;;
35518;SDS011;21627;48.216;16.482;2023-08-01T00:37:51;8.48;;;3.15;;
35518;SDS011;21627;48.216;16.482;2023-08-01T00:40:18;7.43;;;2.97;;
35518;SDS011;21627;48.216;16.482;2023-08-01T00:42:45;8.98;;;3.58;;
35518;SDS011;21627;48.216;16.482;2023-08-01T00:45:13;5.97;;;3.17;;
35518;SDS011;21627;48.216;16.482;2023-08-01T00:47:41;5.18;;;3.28;;
35518;SDS011;21627;48.216;16.482;2023-08-01T00:50:10;5.60;;;3.47;;
35518;SDS011;21627;48.216;16.482;2023-08-01T00:52:38;4.47;;;3.00;;
35518;SDS011;21627;48.216;16.482;2023-08-01T00:55:08;7.53;;;3.15;;
35518;SDS011;21627;48.216;16.482;2023-08-01T00:57:36;4.30;;;3.60;;
35518;SDS011;21627;48.216;16.482;2023-08-01T01:00:05;5.35;;;3.20;;
35518;SDS011;21627;48.216;16.482;2023-08-01T01:02:35;5.90;;;3.35;;
35518;SDS011;21627;48.216;16.482;2023-08-01T01:05:05;5.28;;;3.72;;
35518;SDS011;21627;48.216;16.482;2023-08-01T01:07:33;6.28;;;3.20;;
35518;SDS011;21627;48.216;16.482;2023-08-01T01:10:04;5.20;;;3.45;;
35518;SDS011;21627;48.216;16.482;2023-08-01T01:12:31;4.50;;;3.03;;
35518;SDS011;21627;48.216;16.482;2023-08-01T01:14:58;5.30;;;3.10;;
35518;SDS011;21627;48.216;16.482;2023-08-01T01:17:25;5.88;;;3.15;;
35518;SDS011;21627;48.216;16.482;2023-08-01T01:19:53;5.57;;;3.63;;
35518;SDS011;21627;48.216;16.482;2023-08-01T01:22:20;7.03;;;3.55;;
35518;SDS011;21627;48.216;16.482;2023-08-01T01:24:48;5.18;;;3.38;;
35518;SDS011;21627;48.216;16.482;2023-08-01T01:27:16;4.32;;;3.38;;
35518;SDS011;21627;48.216;16.482;2023-08-01T01:29:44;6.63;;;3.75;;
35518;SDS011;21627;48.216;16.482;2023-08-01T01:32:13;5.82;;;3.42;;
35518;SDS011;21627;48.216;16.482;2023-08-01T01:34:41;10.80;;;4.60;;
35518;SDS011;21627;48.216;16.482;2023-08-01T01:37:08;13.18;;;4.07;;
35518;SDS011;21627;48.216;16.482;2023-08-01T01:39:35;5.68;;;3.53;;
35518;SDS011;21627;48.216;16.482;2023-08-01T01:42:02;6.38;;;3.55;;
35518;SDS011;21627;48.216;16.482;2023-08-01T01:44:30;6.35;;;3.28;;
35518;SDS011;21627;48.216;16.482;2023-08-01T01:46:57;5.25;;;3.30;;
35518;SDS011;21627;48.216;16.482;2023-08-01T01:49:24;5.80;;;3.60;;
35518;SDS011;21627;48.216;16.482;2023-08-01T01:51:52;7.13;;;3.63;;
35518;SDS011;21627;48.216;16.482;2023-08-01T01:54:19;6.68;;;3.20;;
35518;SDS011;21627;48.216;16.482;2023-08-01T01:56:46;8.63;;;3.50;;
35518;SDS011;21627;48.216;16.482;2023-08-01T01:59:13;4.18;;;3.33;;
35518;SDS011;21627;48.216;16.482;2023-08-01T02:01:40;6.18;;;3.33;;
35518;SDS011;21627;48.216;16.482;2023-08-01T02:04:07;6.82;;;3.50;;
35518;SDS011;21627;48.216;16.482;2023-08-01T02:06:34;4.65;;;3.30;;
35518;SDS011;21627;48.216;16.482;2023-08-01T02:09:02;7.25;;;3.13;;
35518;SDS011;21627;48.216;16.482;2023-08-01T02:11:30;7.45;;;3.28;;
35518;SDS011;21627;48.216;16.482;2023-08-01T02:13:57;6.10;;;3.45;;
35518;SDS011;21627;48.216;16.482;2023-08-01T02:16:24;6.93;;;3.72;;
35518;SDS011;21627;48.216;16.482;2023-08-01T02:18:51;6.22;;;3.78;;
35518;SDS011;21627;48.216;16.482;2023-08-01T02:21:19;4.78;;;3.45;;
35518;SDS011;21627;48.216;16.482;2023-08-01T02:23:46;7.22;;;3.65;;
35518;SDS011;21627;48.216;16.482;2023-08-01T02:26:13;9.55;;;3.78;;
35518;SDS011;21627;48.216;16.482;2023-08-01T02:28:40;5.65;;;3.38;;
35518;SDS011;21627;48.216;16.482;2023-08-01T02:31:07;7.93;;;3.72;;
35518;SDS011;21627;48.216;16.482;2023-08-01T02:33:34;6.80;;;3.63;;
35518;SDS011;21627;48.216;16.482;2023-08-01T02:36:02;10.45;;;3.70;;
35518;SDS011;21627;48.216;16.482;2023-08-01T02:38:29;8.93;;;3.53;;
35518;SDS011;21627;48.216;16.482;2023-08-01T02:40:56;8.25;;;3.08;;
35518;SDS011;21627;48.216;16.482;2023-08-01T02:43:23;8.00;;;3.58;;
35518;SDS011;21627;48.216;16.482;2023-08-01T02:45:50;8.30;;;3.40;;
35518;SDS011;21627;48.216;16.482;2023-08-01T02:48:17;6.00;;;3.95;;
35518;SDS011;21627;48.216;16.482;2023-08-01T02:50:45;7.93;;;3.67;;
35518;SDS011;21627;48.216;16.482;2023-08-01T02:53:12;6.53;;;3.42;;
35518;SDS011;21627;48.216;16.482;2023-08-01T02:55:40;11.68;;;3.60;;
35518;SDS011;21627;48.216;16.482;2023-08-01T02:58:07;4.30;;;3.22;;
35518;SDS011;21627;48.216;16.482;2023-08-01T03:00:37;4.80;;;3.17;;
35518;SDS011;21627;48.216;16.482;2023-08-01T03:03:06;8.80;;;3.28;;
35518;SDS011;21627;48.216;16.482;2023-08-01T03:05:35;9.77;;;3.55;;
35518;SDS011;21627;48.216;16.482;2023-08-01T03:08:04;8.50;;;3.45;;
35518;SDS011;21627;48.216;16.482;2023-08-01T03:10:31;5.93;;;3.40;;
35518;SDS011;21627;48.216;16.482;2023-08-01T03:13:02;6.20;;;3.45;;
35518;SDS011;21627;48.216;16.482;2023-08-01T03:15:30;7.75;;;3.55;;
35518;SDS011;21627;48.216;16.482;2023-08-01T03:17:58;7.85;;;3.67;;
35518;SDS011;21627;48.216;16.482;2023-08-01T03:20:25;9.13;;;4.00;;
35518;SDS011;21627;48.216;16.482;2023-08-01T03:22:52;5.82;;;3.72;;
35518;SDS011;21627;48.216;16.482;2023-08-01T03:25:19;8.07;;;4.05;;
35518;SDS011;21627;48.216;16.482;2023-08-01T03:27:46;17.67;;;4.55;;
35518;SDS011;21627;48.216;16.482;2023-08-01T03:30:13;11.77;;;3.72;;
35518;SDS011;21627;48.216;16.482;2023-08-01T03:32:41;4.95;;;3.58;;
35518;SDS011;21627;48.216;16.482;2023-08-01T03:35:08;8.27;;;3.53;;
35518;SDS011;21627;48.216;16.482;2023-08-01T03:37:35;6.15;;;4.15;;
35518;SDS011;21627;48.216;16.482;2023-08-01T03:40:02;7.90;;;3.55;;
35518;SDS011;21627;48.216;16.482;2023-08-01T03:42:29;4.22;;;3.20;;
35518;SDS011;21627;48.216;16.482;2023-08-01T03:44:56;6.18;;;3.55;;
35518;SDS011;21627;48.216;16.482;2023-08-01T03:47:23;6.70;;;4.22;;
35518;SDS011;21627;48.216;16.482;2023-08-01T03:49:50;5.53;;;3.70;;
35518;SDS011;21627;48.216;16.482;2023-08-01T03:52:18;6.00;;;3.95;;
35518;SDS011;21627;48.216;16.482;2023-08-01T03:54:45;5.00;;;3.42;;
35518;SDS011;21627;48.216;16.482;2023-08-01T03:57:12;5.18;;;3.47;;
35518;SDS011;21627;48.216;16.482;2023-08-01T03:59:40;6.63;;;3.97;;
35518;SDS011;21627;48.216;16.482;2023-08-01T04:02:07;6.25;;;3.65;;
35518;SDS011;21627;48.216;16.482;2023-08-01T04:04:34;5.95;;;4.07;;
35518;SDS011;21627;48.216;16.482;2023-08-01T04:07:01;8.70;;;3.97;;
35518;SDS011;21627;48.216;16.482;2023-08-01T04:09:28;4.05;;;2.92;;
35518;SDS011;21627;48.216;16.482;2023-08-01T04:11:55;4.55;;;3.22;;
35518;SDS011;21627;48.216;16.482;2023-08-01T04:14:23;6.78;;;3.40;;
35518;SDS011;21627;48.216;16.482;2023-08-01T04:16:50;6.25;;;3.65;;
35518;SDS011;21627;48.216;16.482;2023-08-01T04:19:17;4.63;;;3.70;;
35518;SDS011;21627;48.216;16.482;2023-08-01T04:21:44;12.10;;;4.32;;
35518;SDS011;21627;48.216;16.482;2023-08-01T04:24:11;4.50;;;3.67;;
35518;SDS011;21627;48.216;16.482;2023-08-01T04:26:38;5.65;;;3.78;;
35518;SDS011;21627;48.216;16.482;2023-08-01T04:29:06;6.75;;;3.50;;
35518;SDS011;21627;48.216;16.482;2023-08-01T04:31:33;5.80;;;3.72;;
35518;SDS011;21627;48.216;16.482;2023-08-01T04:34:00;5.68;;;3.42;;
35518;SDS011;21627;48.216;16.482;2023-08-01T04:36:27;8.02;;;3.58;;
35518;SDS011;21627;48.216;16.482;2023-08-01T04:38:54;7.28;;;4.03;;
35518;SDS011;21627;48.216;16.482;2023-08-01T04:41:21;5.80;;;3.75;;
35518;SDS011;21627;48.216;16.482;2023-08-01T04:43:48;6.30;;;3.70;;
35518;SDS011;21627;48.216;16.482;2023-08-01T04:46:15;7.28;;;3.75;;
35518;SDS011;21627;48.216;16.482;2023-08-01T04:48:42;9.13;;;3.90;;
35518;SDS011;21627;48.216;16.482;2023-08-01T04:51:09;6.72;;;4.00;;
35518;SDS011;21627;48.216;16.482;2023-08-01T04:53:36;6.22;;;4.03;;
35518;SDS011;21627;48.216;16.482;2023-08-01T04:56:03;7.38;;;3.60;;
35518;SDS011;21627;48.216;16.482;2023-08-01T04:58:31;17.40;;;4.00;;
35518;SDS011;21627;48.216;16.482;2023-08-01T05:00:58;8.73;;;4.13;;
35518;SDS011;21627;48.216;16.482;2023-08-01T05:03:25;9.27;;;4.53;;
35518;SDS011;21627;48.216;16.482;2023-08-01T05:05:53;5.22;;;3.50;;
35518;SDS011;21627;48.216;16.482;2023-08-01T05:08:20;9.73;;;4.22;;
35518;SDS011;21627;48.216;16.482;2023-08-01T05:10:47;9.30;;;4.18;;
35518;SDS011;21627;48.216;16.482;2023-08-01T05:13:14;5.95;;;4.15;;
35518;SDS011;21627;48.216;16.482;2023-08-01T05:15:43;6.78;;;3.70;;
35518;SDS011;21627;48.216;16.482;2023-08-01T05:18:13;6.97;;;3.97;;
35518;SDS011;21627;48.216;16.482;2023-08-01T05:20:43;14.43;;;4.38;;
35518;SDS011;21627;48.216;16.482;2023-08-01T05:23:10;8.80;;;4.20;;
35518;SDS011;21627;48.216;16.482;2023-08-01T05:25:37;9.88;;;4.05;;
35518;SDS011;21627;48.216;16.482;2023-08-01T05:28:04;6.18;;;4.57;;
35518;SDS011;21627;48.216;16.482;2023-08-01T05:30:31;6.38;;;3.95;;
35518;SDS011;21627;48.216;16.482;2023-08-01T05:32:59;8.27;;;4.13;;
35518;SDS011;21627;48.216;16.482;2023-08-01T05:35:26;10.48;;;4.00;;
35518;SDS011;21627;48.216;16.482;2023-08-01T05:37:53;19.55;;;4.65;;
35518;SDS011;21627;48.216;16.482;2023-08-01T05:40:20;13.13;;;4.30;;
35518;SDS011;21627;48.216;16.482;2023-08-01T05:42:47;17.45;;;4.43;;
35518;SDS011;21627;48.216;16.482;2023-08-01T05:45:14;12.57;;;5.20;;
35518;SDS011;21627;48.216;16.482;2023-08-01T05:47:42;10.57;;;4.53;;
35518;SDS011;21627;48.216;16.482;2023-08-01T05:50:09;9.45;;;4.00;;
35518;SDS011;21627;48.216;16.482;2023-08-01T05:52:36;9.30;;;4.47;;
35518;SDS011;21627;48.216;16.482;2023-08-01T05:55:03;12.18;;;4.80;;
35518;SDS011;21627;48.216;16.482;2023-08-01T05:57:31;22.10;;;4.95;;
35518;SDS011;21627;48.216;16.482;2023-08-01T05:59:58;9.10;;;4.18;;
35518;SDS011;21627;48.216;16.482;2023-08-01T06:02:25;7.47;;;4.22;;
35518;SDS011;21627;48.216;16.482;2023-08-01T06:04:53;7.10;;;3.70;;
35518;SDS011;21627;48.216;16.482;2023-08-01T06:07:20;8.57;;;4.07;;
35518;SDS011;21627;48.216;16.482;2023-08-01T06:09:50;5.82;;;3.80;;
35518;SDS011;21627;48.216;16.482;2023-08-01T06:12:20;7.85;;;3.85;;
35518;SDS011;21627;48.216;16.482;2023-08-01T06:14:47;11.57;;;3.88;;
35518;SDS011;21627;48.216;16.482;2023-08-01T06:17:14;6.13;;;4.13;;
35518;SDS011;21627;48.216;16.482;2023-08-01T06:19:42;4.85;;;3.70;;
35518;SDS011;21627;48.216;16.482;2023-08-01T06:22:09;10.18;;;4.25;;
35518;SDS011;21627;48.216;16.482;2023-08-01T06:24:36;5.20;;;3.35;;
35518;SDS011;21627;48.216;16.482;2023-08-01T06:27:03;5.30;;;3.67;;
35518;SDS011;21627;48.216;16.482;2023-08-01T06:29:31;4.18;;;3.10;;
35518;SDS011;21627;48.216;16.482;2023-08-01T06:31:59;10.52;;;3.83;;
35518;SDS011;21627;48.216;16.482;2023-08-01T06:34:26;4.38;;;3.47;;
35518;SDS011;21627;48.216;16.482;2023-08-01T06:36:53;8.48;;;4.13;;
35518;SDS011;21627;48.216;16.482;2023-08-01T06:39:20;10.52;;;5.07;;
35518;SDS011;21627;48.216;16.482;2023-08-01T06:41:47;11.88;;;3.83;;
35518;SDS011;21627;48.216;16.482;2023-08-01T06:44:14;9.50;;;4.35;;
35518;SDS011;21627;48.216;16.482;2023-08-01T06:46:41;7.93;;;4.25;;
35518;SDS011;21627;48.216;16.482;2023-08-01T06:49:09;9.32;;;4.68;;
35518;SDS011;21627;48.216;16.482;2023-08-01T06:51:36;7.45;;;4.53;;
35518;SDS011;21627;48.216;16.482;2023-08-01T06:54:03;7.00;;;4.57;;
35518;SDS011;21627;48.216;16.482;2023-08-01T06:56:30;6.53;;;4.68;;
35518;SDS011;21627;48.216;16.482;2023-08-01T06:58:57;10.55;;;4.40;;
35518;SDS011;21627;48.216;16.482;2023-08-01T07:01:24;7.28;;;4.40;;
35518;SDS011;21627;48.216;16.482;2023-08-01T07:03:51;6.53;;;4.28;;
35518;SDS011;21627;48.216;16.482;2023-08-01T07:06:19;7.15;;;4.50;;
35518;SDS011;21627;48.216;16.482;2023-08-01T07:08:46;6.80;;;3.80;;
35518;SDS011;21627;48.216;16.482;2023-08-01T07:11:13;7.30;;;5.03;;
35518;SDS011;21627;48.216;16.482;2023-08-01T07:13:40;11.00;;;4.90;;
35518;SDS011;21627;48.216;16.482;2023-08-01T07:16:07;8.57;;;5.10;;
35518;SDS011;21627;48.216;16.482;2023-08-01T07:18:34;6.82;;;4.47;;
35518;SDS011;21627;48.216;16.482;2023-08-01T07:21:02;7.95;;;4.05;;
35518;SDS011;21627;48.216;16.482;2023-08-01T07:23:31;6.65;;;4.50;;
35518;SDS011;21627;48.216;16.482;2023-08-01T07:26:00;12.32;;;4.90;;
35518;SDS011;21627;48.216;16.482;2023-08-01T07:28:27;9.85;;;4.00;;
35518;SDS011;21627;48.216;16.482;2023-08-01T07:30:58;9.90;;;4.97;;
35518;SDS011;21627;48.216;16.482;2023-08-01T07:33:33;12.63;;;4.85;;
35518;SDS011;21627;48.216;16.482;2023-08-01T07:36:01;6.68;;;4.25;;
35518;SDS011;21627;48.216;16.482;2023-08-01T07:38:28;7.53;;;4.50;;
35518;SDS011;21627;48.216;16.482;2023-08-01T07:41:01;10.65;;;4.63;;
35518;SDS011;21627;48.216;16.482;2023-08-01T07:43:30;8.00;;;4.43;;
35518;SDS011;21627;48.216;16.482;2023-08-01T07:45:58;8.45;;;4.82;;
35518;SDS011;21627;48.216;16.482;2023-08-01T07:48:26;7.93;;;4.43;;
35518;SDS011;21627;48.216;16.482;2023-08-01T07:50:53;7.35;;;5.20;;
35518;SDS011;21627;48.216;16.482;2023-08-01T07:53:20;10.63;;;4.97;;
35518;SDS011;21627;48.216;16.482;2023-08-01T07:55:47;12.32;;;4.30;;
35518;SDS011;21627;48.216;16.482;2023-08-01T07:58:15;10.52;;;5.40;;
35518;SDS011;21627;48.216;16.482;2023-08-01T08:00:43;11.13;;;5.20;;
35518;SDS011;21627;48.216;16.482;2023-08-01T08:03:10;10.35;;;4.78;;
35518;SDS011;21627;48.216;16.482;2023-08-01T08:05:38;11.95;;;4.43;;
35518;SDS011;21627;48.216;16.482;2023-08-01T08:08:06;9.98;;;3.97;;
35518;SDS011;21627;48.216;16.482;2023-08-01T08:10:33;11.23;;;3.83;;
35518;SDS011;21627;48.216;16.482;2023-08-01T08:13:01;13.50;;;4.07;;
35518;SDS011;21627;48.216;16.482;2023-08-01T08:15:28;25.25;;;4.20;;
35518;SDS011;21627;48.216;16.482;2023-08-01T08:18:00;27.80;;;4.32;;
35518;SDS011;21627;48.216;16.482;2023-08-01T08:20:31;18.48;;;4.20;;
35518;SDS011;21627;48.216;16.482;2023-08-01T08:23:06;25.67;;;5.28;;
35518;SDS011;21627;48.216;16.482;2023-08-01T08:25:33;17.10;;;4.30;;
35518;SDS011;21627;48.216;16.482;2023-08-01T08:28:00;15.60;;;4.47;;
35518;SDS011;21627;48.216;16.482;2023-08-01T08:30:27;30.40;;;5.18;;
35518;SDS011;21627;48.216;16.482;2023-08-01T08:32:56;18.33;;;4.68;;
35518;SDS011;21627;48.216;16.482;2023-08-01T08:35:25;7.13;;;3.90;;
35518;SDS011;21627;48.216;16.482;2023-08-01T08:37:52;18.13;;;4.65;;
35518;SDS011;21627;48.216;16.482;2023-08-01T08:40:19;11.55;;;4.03;;
35518;SDS011;21627;48.216;16.482;2023-08-01T08:42:46;11.13;;;4.22;;
35518;SDS011;21627;48.216;16.482;2023-08-01T08:45:16;6.60;;;3.92;;
35518;SDS011;21627;48.216;16.482;2023-08-01T08:47:48;11.68;;;4.15;;
35518;SDS011;21627;48.216;16.482;2023-08-01T08:50:21;11.35;;;4.53;;
35518;SDS011;21627;48.216;16.482;2023-08-01T08:52:50;12.27;;;4.82;;
35518;SDS011;21627;48.216;16.482;2023-08-01T08:55:18;6.47;;;4.05;;
35518;SDS011;21627;48.216;16.482;2023-08-01T08:57:49;10.13;;;3.95;;
35518;SDS011;21627;48.216;16.482;2023-08-01T09:00:19;11.93;;;3.95;;
35518;SDS011;21627;48.216;16.482;2023-08-01T09:02:48;10.65;;;3.60;;
35518;SDS011;21627;48.216;16.482;2023-08-01T09:05:15;12.55;;;3.92;;
35518;SDS011;21627;48.216;16.482;2023-08-01T09:07:43;13.75;;;3.80;;
35518;SDS011;21627;48.216;16.482;2023-08-01T09:10:14;10.98;;;4.20;;
35518;SDS011;21627;48.216;16.482;2023-08-01T09:12:41;5.07;;;3.65;;
35518;SDS011;21627;48.216;16.482;2023-08-01T09:15:08;13.25;;;4.00;;
35518;SDS011;21627;48.216;16.482;2023-08-01T09:17:46;5.60;;;3.70;;
35518;SDS011;21627;48.216;16.482;2023-08-01T09:20:18;14.63;;;4.10;;
35518;SDS011;21627;48.216;16.482;2023-08-01T09:22:45;12.15;;;4.25;;
35518;SDS011;21627;48.216;16.482;2023-08-01T09:25:13;10.65;;;4.32;;
35518;SDS011;21627;48.216;16.482;2023-08-01T09:27:40;7.72;;;3.67;;
35518;SDS011;21627;48.216;16.482;2023-08-01T09:30:14;9.70;;;3.70;;
35518;SDS011;21627;48.216;16.482;2023-08-01T09:32:51;8.02;;;4.22;;
35518;SDS011;21627;48.216;16.482;2023-08-01T09:35:19;6.45;;;4.03;;
35518;SDS011;21627;48.216;16.482;2023-08-01T09:37:48;7.28;;;3.65;;
35518;SDS011;21627;48.216;16.482;2023-08-01T09:40:15;6.40;;;3.92;;
35518;SDS011;21627;48.216;16.482;2023-08-01T09:42:43;9.63;;;3.95;;
35518;SDS011;21627;48.216;16.482;2023-08-01T09:45:12;5.75;;;3.20;;
35518;SDS011;21627;48.216;16.482;2023-08-01T09:47:44;7.30;;;3.85;;
35518;SDS011;21627;48.216;16.482;2023-08-01T09:50:22;10.48;;;3.60;;
35518;SDS011;21627;48.216;16.482;2023-08-01T09:52:50;6.57;;;3.70;;
35518;SDS011;21627;48.216;16.482;2023-08-01T09:55:54;11.25;;;3.90;;
35518;SDS011;21627;48.216;16.482;2023-08-01T09:58:14;7.57;;;3.88;;
35518;SDS011;21627;48.216;16.482;2023-08-01T10:00:48;9.13;;;4.60;;
35518;SDS011;21627;48.216;16.482;2023-08-01T10:03:17;9.30;;;3.92;;
35518;SDS011;21627;48.216;16.482;2023-08-01T10:05:48;11.02;;;4.57;;
35518;SDS011;21627;48.216;16.482;2023-08-01T10:08:20;5.88;;;3.88;;
35518;SDS011;21627;48.216;16.482;2023-08-01T10:10:48;14.55;;;5.45;;
35518;SDS011;21627;48.216;16.482;2023-08-01T10:13:16;16.45;;;6.90;;
35518;SDS011;21627;48.216;16.482;2023-08-01T10:15:46;12.23;;;5.22;;
35518;SDS011;21627;48.216;16.482;2023-08-01T10:18:14;9.95;;;4.78;;
35518;SDS011;21627;48.216;16.482;2023-08-01T10:20:43;8.75;;;4.13;;
35518;SDS011;21627;48.216;16.482;2023-08-01T10:23:11;7.22;;;3.78;;
35518;SDS011;21627;48.216;16.482;2023-08-01T10:25:39;17.13;;;5.60;;
35518;SDS011;21627;48.216;16.482;2023-08-01T10:28:06;11.38;;;4.75;;
35518;SDS011;21627;48.216;16.482;2023-08-01T10:30:33;11.38;;;5.15;;
35518;SDS011;21627;48.216;16.482;2023-08-01T10:33:01;10.90;;;5.25;;
35518;SDS011;21627;48.216;16.482;2023-08-01T10:35:32;11.85;;;5.55;;
35518;SDS011;21627;48.216;16.482;2023-08-01T10:38:07;9.82;;;5.50;;
35518;SDS011;21627;48.216;16.482;2023-08-01T10:40:37;12.43;;;6.30;;
35518;SDS011;21627;48.216;16.482;2023-08-01T10:43:23;8.32;;;5.82;;
35518;SDS011;21627;48.216;16.482;2023-08-01T10:46:01;9.50;;;5.70;;
35518;SDS011;21627;48.216;16.482;2023-08-01T10:48:32;15.50;;;5.70;;
35518;SDS011;21627;48.216;16.482;2023-08-01T10:50:59;13.95;;;5.75;;
35518;SDS011;21627;48.216;16.482;2023-08-01T10:53:37;10.20;;;5.63;;
35518;SDS011;21627;48.216;16.482;2023-08-01T10:56:14;10.85;;;5.63;;
35518;SDS011;21627;48.216;16.482;2023-08-01T10:58:46;15.68;;;6.82;;
35518;SDS011;21627;48.216;16.482;2023-08-01T11:01:14;11.98;;;6.30;;
35518;SDS011;21627;48.216;16.482;2023-08-01T11:03:41;8.45;;;4.90;;
35518;SDS011;21627;48.216;16.482;2023-08-01T11:06:09;9.98;;;5.68;;
35518;SDS011;21627;48.216;16.482;2023-08-01T11:11:08;11.88;;;6.40;;
35518;SDS011;21627;48.216;16.482;2023-08-01T11:13:41;8.35;;;5.50;;
35518;SDS011;21627;48.216;16.482;2023-08-01T11:16:19;12.27;;;6.35;;
35518;SDS011;21627;48.216;16.482;2023-08-01T11:18:46;9.48;;;6.35;;
35518;SDS011;21627;48.216;16.482;2023-08-01T11:21:23;16.38;;;6.15;;
35518;SDS011;21627;48.216;16.482;2023-08-01T11:23:54;10.05;;;6.95;;
35518;SDS011;21627;48.216;16.482;2023-08-01T11:26:21;13.20;;;6.63;;
35518;SDS011;21627;48.216;16.482;2023-08-01T11:28:48;12.40;;;6.38;;
35518;SDS011;21627;48.216;16.482;2023-08-01T11:31:15;11.85;;;5.93;;
35518;SDS011;21627;48.216;16.482;2023-08-01T11:33:42;10.15;;;6.00;;
35518;SDS011;21627;48.216;16.482;2023-08-01T11:36:21;12.23;;;6.00;;
35518;SDS011;21627;48.216;16.482;2023-08-01T11:38:48;11.73;;;6.30;;
35518;SDS011;21627;48.216;16.482;2023-08-01T11:41:15;14.13;;;6.55;;
35518;SDS011;21627;48.216;16.482;2023-08-01T11:43:43;11.45;;;6.00;;
35518;SDS011;21627;48.216;16.482;2023-08-01T11:46:10;10.48;;;5.90;;
35518;SDS011;21627;48.216;16.482;2023-08-01T11:48:39;16.30;;;5.95;;
35518;SDS011;21627;48.216;16.482;2023-08-01T11:51:16;11.38;;;5.63;;
35518;SDS011;21627;48.216;16.482;2023-08-01T11:53:43;17.63;;;6.80;;
35518;SDS011;21627;48.216;16.482;2023-08-01T11:56:19;25.73;;;7.07;;
35518;SDS011;21627;48.216;16.482;2023-08-01T11:58:48;13.45;;;7.03;;
35518;SDS011;21627;48.216;16.482;2023-08-01T12:01:15;16.35;;;6.82;;
35518;SDS011;21627;48.216;16.482;2023-08-01T12:06:17;16.92;;;7.65;;
35518;SDS011;21627;48.216;16.482;2023-08-01T12:08:48;15.05;;;8.52;;
35518;SDS011;21627;48.216;16.482;2023-08-01T12:11:22;13.57;;;7.97;;
35518;SDS011;21627;48.216;16.482;2023-08-01T12:14:12;23.02;;;7.22;;
35518;SDS011;21627;48.216;16.482;2023-08-01T12:16:41;30.67;;;7.60;;
35518;SDS011;21627;48.216;16.482;2023-08-01T12:19:17;12.73;;;6.75;;
35518;SDS011;21627;48.216;16.482;2023-08-01T12:21:46;13.15;;;7.00;;
35518;SDS011;21627;48.216;16.482;2023-08-01T12:24:13;20.20;;;7.40;;
35518;SDS011;21627;48.216;16.482;2023-08-01T12:26:40;37.13;;;7.97;;
35518;SDS011;21627;48.216;16.482;2023-08-01T12:29:08;36.58;;;7.13;;
35518;SDS011;21627;48.216;16.482;2023-08-01T12:31:36;24.08;;;7.10;;
35518;SDS011;21627;48.216;16.482;2023-08-01T12:34:04;13.80;;;6.18;;
35518;SDS011;21627;48.216;16.482;2023-08-01T12:36:31;12.18;;;6.07;;
35518;SDS011;21627;48.216;16.482;2023-08-01T12:38:58;11.88;;;6.55;;
35518;SDS011;21627;48.216;16.482;2023-08-01T12:41:25;12.77;;;5.97;;
35518;SDS011;21627;48.216;16.482;2023-08-01T12:43:52;10.65;;;5.57;;
35518;SDS011;21627;48.216;16.482;2023-08-01T12:46:19;12.75;;;6.28;;
35518;SDS011;21627;48.216;16.482;2023-08-01T12:48:47;11.45;;;5.95;;
35518;SDS011;21627;48.216;16.482;2023-08-01T12:51:14;16.98;;;6.88;;
35518;SDS011;21627;48.216;16.482;2023-08-01T12:53:41;17.75;;;7.53;;
35518;SDS011;21627;48.216;16.482;2023-08-01T12:56:09;13.50;;;6.65;;
35518;SDS011;21627;48.216;16.482;2023-08-01T12:58:36;21.67;;;6.72;;
35518;SDS011;21627;48.216;16.482;2023-08-01T13:01:03;24.95;;;7.75;;
35518;SDS011;21627;48.216;16.482;2023-08-01T13:03:30;26.50;;;7.50;;
35518;SDS011;21627;48.216;16.482;2023-08-01T13:05:58;52.15;;;8.80;;
35518;SDS011;21627;48.216;16.482;2023-08-01T13:08:25;30.35;;;8.00;;
35518;SDS011;21627;48.216;16.482;2023-08-01T13:10:52;28.40;;;7.10;;
35518;SDS011;21627;48.216;16.482;2023-08-01T13:13:19;24.63;;;7.10;;
35518;SDS011;21627;48.216;16.482;2023-08-01T13:15:47;21.27;;;6.35;;
35518;SDS011;21627;48.216;16.482;2023-08-01T13:18:14;26.35;;;6.47;;
35518;SDS011;21627;48.216;16.482;2023-08-01T13:20:41;16.77;;;6.80;;
35518;SDS011;21627;48.216;16.482;2023-08-01T13:23:08;51.88;;;8.13;;
35518;SDS011;21627;48.216;16.482;2023-08-01T13:25:35;21.98;;;6.75;;
35518;SDS011;21627;48.216;16.482;2023-08-01T13:28:02;25.88;;;6.72;;
35518;SDS011;21627;48.216;16.482;2023-08-01T13:30:30;8.02;;;6.07;;
35518;SDS011;21627;48.216;16.482;2023-08-01T13:32:57;16.67;;;5.82;;
35518;SDS011;21627;48.216;16.482;2023-08-01T13:35:24;19.80;;;6.43;;
35518;SDS011;21627;48.216;16.482;2023-08-01T13:37:51;11.90;;;6.13;;
35518;SDS011;21627;48.216;16.482;2023-08-01T13:40:18;9.30;;;5.90;;
35518;SDS011;21627;48.216;16.482;2023-08-01T13:42:45;15.90;;;6.70;;
35518;SDS011;21627;48.216;16.482;2023-08-01T13:45:12;32.25;;;7.13;;
35518;SDS011;21627;48.216;16.482;2023-08-01T13:47:40;49.05;;;7.45;;
35518;SDS011;21627;48.216;16.482;2023-08-01T13:50:07;29.85;;;8.10;;
35518;SDS011;21627;48.216;16.482;2023-08-01T13:52:38;24.48;;;6.72;;
35518;SDS011;21627;48.216;16.482;2023-08-01T13:55:05;23.92;;;6.97;;
35518;SDS011;21627;48.216;16.482;2023-08-01T13:57:33;15.20;;;6.88;;
35518;SDS011;21627;48.216;16.482;2023-08-01T14:00:01;12.07;;;6.65;;
35518;SDS011;21627;48.216;16.482;2023-08-01T14:02:41;20.02;;;6.75;;
35518;SDS011;21627;48.216;16.482;2023-08-01T14:05:09;22.02;;;7.82;;
35518;SDS011;21627;48.216;16.482;2023-08-01T14:07:36;13.77;;;7.20;;
35518;SDS011;21627;48.216;16.482;2023-08-01T14:10:09;22.02;;;8.50;;
35518;SDS011;21627;48.216;16.482;2023-08-01T14:12:37;22.13;;;9.07;;
35518;SDS011;21627;48.216;16.482;2023-08-01T14:15:04;32.53;;;8.43;;
35518;SDS011;21627;48.216;16.482;2023-08-01T14:17:33;22.17;;;9.45;;
35518;SDS011;21627;48.216;16.482;2023-08-01T14:20:00;36.92;;;10.35;;
35518;SDS011;21627;48.216;16.482;2023-08-01T14:22:30;14.75;;;8.95;;
35518;SDS011;21627;48.216;16.482;2023-08-01T14:24:57;20.30;;;8.80;;
35518;SDS011;21627;48.216;16.482;2023-08-01T14:27:24;20.70;;;8.50;;
35518;SDS011;21627;48.216;16.482;2023-08-01T14:29:51;30.10;;;10.48;;
35518;SDS011;21627;48.216;16.482;2023-08-01T14:32:18;16.73;;;10.18;;
35518;SDS011;21627;48.216;16.482;2023-08-01T14:34:46;33.88;;;10.70;;
35518;SDS011;21627;48.216;16.482;2023-08-01T14:37:13;52.30;;;12.15;;
35518;SDS011;21627;48.216;16.482;2023-08-01T14:39:40;56.67;;;11.43;;